Time;durP1;ratioP1;P1;durP2;ratioP2;P2;SDS_P1;SDS_P2;PMS_P1;PMS_P2;Temp;Humidity;BMP_temperature;BMP_pressure;BME280_temperature;BME280_humidity;BME280_pressure;Samples;Min_cycle;Max_cycle;Signal;HPM_P1;HPM_P2
2021/04/29 00:00:13;;;;;;;7.83;2.20;;;;;;;14.56;58.06;99570.69;4963303;28;20126;-68
2021/04/29 00:02:40;;;;;;;6.03;2.63;;;;;;;14.61;58.01;99579.78;4953743;28;20354;-69
2021/04/29 00:05:08;;;;;;;3.80;2.20;;;;;;;14.49;58.31;99547.84;4963105;28;20042;-67
2021/04/29 00:07:35;;;;;;;6.23;2.60;;;;;;;14.58;58.22;99566.38;4937582;28;20058;-68
2021/04/29 00:10:04;;;;;;;11.67;4.30;;;;;;;14.55;58.37;99561.44;4965318;28;20384;-68
2021/04/29 00:12:31;;;;;;;9.37;4.37;;;;;;;14.55;58.30;99569.84;4960155;28;20047;-68
2021/04/29 00:14:57;;;;;;;7.80;4.13;;;;;;;14.38;58.29;99547.34;4957186;28;20048;-69
2021/04/29 00:17:24;;;;;;;7.67;3.37;;;;;;;14.47;58.27;99559.44;4956052;28;20054;-68
2021/04/29 00:19:50;;;;;;;7.73;3.50;;;;;;;14.46;58.42;99567.03;4959002;28;20047;-68
2021/04/29 00:22:16;;;;;;;10.07;2.90;;;;;;;14.44;58.41;99574.94;4963686;28;20488;-71
2021/04/29 00:24:43;;;;;;;11.67;4.00;;;;;;;14.36;58.44;99558.94;4963637;28;20566;-70
2021/04/29 00:27:09;;;;;;;8.77;3.00;;;;;;;14.38;58.42;99567.03;4958014;28;20082;-69
2021/04/29 00:29:35;;;;;;;4.90;3.00;;;;;;;14.29;58.32;99557.75;4960010;28;20085;-71
2021/04/29 00:32:02;;;;;;;5.70;3.20;;;;;;;14.23;58.56;99551.50;4964380;28;20051;-72
2021/04/29 00:34:42;;;;;;;5.90;2.70;;;;;;;14.13;58.58;99546.19;4962233;28;20125;-72
2021/04/29 00:37:08;;;;;;;5.07;2.90;;;;;;;14.05;58.76;99532.97;4964744;28;20054;-72
2021/04/29 00:39:35;;;;;;;8.60;3.03;;;;;;;14.10;58.83;99546.84;4964618;28;20044;-67
2021/04/29 00:42:01;;;;;;;8.53;4.50;;;;;;;14.04;58.94;99545.34;4963617;28;20046;-66
2021/04/29 00:44:28;;;;;;;6.67;3.17;;;;;;;14.14;58.93;99564.69;4953615;28;20107;-68
2021/04/29 00:46:57;;;;;;;8.93;2.97;;;;;;;13.95;59.22;99534.13;4961566;28;20054;-69
2021/04/29 00:49:24;;;;;;;5.70;2.77;;;;;;;14.11;59.14;99556.91;4964313;28;20138;-70
2021/04/29 00:51:50;;;;;;;8.23;3.13;;;;;;;14.08;59.09;99549.97;4967187;28;20043;-72
2021/04/29 00:54:19;;;;;;;12.30;2.83;;;;;;;14.11;58.89;99559.72;4967231;28;20058;-71
2021/04/29 00:56:45;;;;;;;10.73;2.90;;;;;;;14.08;58.90;99560.38;4965260;28;20043;-72
2021/04/29 00:59:12;;;;;;;7.07;2.87;;;;;;;14.11;59.01;99554.13;4962534;28;20046;-67
2021/04/29 01:01:41;;;;;;;4.03;2.50;;;;;;;14.04;58.94;99548.97;4967863;28;20074;-67
2021/04/29 01:04:19;;;;;;;8.00;2.63;;;;;;;14.00;59.00;99548.00;4957135;28;20492;-67
2021/04/29 01:07:07;;;;;;;7.40;3.00;;;;;;;14.05;58.95;99549.81;4963108;28;20062;-69
2021/04/29 01:09:41;;;;;;;6.53;3.00;;;;;;;13.97;58.98;99549.47;4963030;28;20392;-73
2021/04/29 01:12:15;;;;;;;8.57;3.10;;;;;;;13.88;58.93;99523.38;4973448;28;20500;-73
2021/04/29 01:14:42;;;;;;;10.37;3.20;;;;;;;14.01;58.89;99543.19;4964058;28;20577;-74
2021/04/29 01:17:10;;;;;;;10.10;3.90;;;;;;;13.98;59.07;99548.34;4965661;28;20043;-75
2021/04/29 01:19:42;;;;;;;8.27;3.20;;;;;;;13.95;59.17;99550.97;4960764;28;20117;-71
2021/04/29 01:22:09;;;;;;;10.40;3.83;;;;;;;13.94;59.16;99543.69;4963883;28;20050;-69
2021/04/29 01:24:48;;;;;;;6.93;2.87;;;;;;;13.91;59.17;99545.19;4966888;28;20417;-70
2021/04/29 01:27:17;;;;;;;6.37;3.07;;;;;;;13.87;59.37;99544.16;4961590;28;20548;-71
2021/04/29 01:29:44;;;;;;;7.53;3.27;;;;;;;13.88;59.30;99550.59;4965882;28;20058;-70
2021/04/29 01:32:11;;;;;;;6.17;2.97;;;;;;;13.85;59.35;99551.28;4967308;28;20051;-70
2021/04/29 01:34:39;;;;;;;6.27;3.20;;;;;;;13.76;59.47;99545.63;4967532;28;20172;-70
2021/04/29 01:37:07;;;;;;;6.30;2.63;;;;;;;13.80;59.36;99543.81;4957173;28;20039;-72
2021/04/29 01:39:34;;;;;;;12.13;2.97;;;;;;;13.76;59.37;99542.84;4969219;28;20481;-70
2021/04/29 01:42:01;;;;;;;3.87;2.40;;;;;;;13.72;59.51;99553.06;4963921;28;20054;-72
2021/04/29 01:44:29;;;;;;;5.37;3.00;;;;;;;13.71;59.58;99551.41;4969180;28;20134;-71
2021/04/29 01:46:59;;;;;;;6.03;2.70;;;;;;;13.66;59.59;99548.75;4969938;28;20411;-72
2021/04/29 01:49:29;;;;;;;9.48;3.47;;;;;;;13.59;59.75;99542.78;4962025;28;20855;-73
2021/04/29 01:51:56;;;;;;;9.67;2.87;;;;;;;13.64;59.73;99545.44;4960924;28;20047;-72
2021/04/29 01:54:24;;;;;;;7.47;3.00;;;;;;;12.99;59.59;99463.72;4962825;28;20293;-71
2021/04/29 01:56:51;;;;;;;9.43;3.00;;;;;;;13.60;59.63;99541.63;4964055;28;20055;-73
2021/04/29 01:59:18;;;;;;;4.57;2.37;;;;;;;13.61;59.41;99549.72;4960842;28;20047;-73
2021/04/29 02:01:45;;;;;;;6.73;2.67;;;;;;;13.64;59.41;99551.03;4961898;28;20500;-72
2021/04/29 02:04:12;;;;;;;8.93;3.77;;;;;;;13.65;59.48;99550.72;4964228;28;20070;-73
2021/04/29 02:06:44;;;;;;;6.60;2.87;;;;;;;13.60;59.59;99547.22;4966708;28;20138;-70
2021/04/29 02:09:11;;;;;;;11.93;3.40;;;;;;;13.27;59.48;99489.56;4961509;28;20047;-71
2021/04/29 02:11:45;;;;;;;8.37;2.70;;;;;;;13.53;59.63;99539.28;4959814;28;20691;-72
2021/04/29 02:14:16;;;;;;;6.10;2.97;;;;;;;13.54;59.76;99556.94;4959453;28;20149;-72
2021/04/29 02:16:46;;;;;;;7.70;2.87;;;;;;;13.41;59.87;99539.94;4967566;28;20380;-73
2021/04/29 02:19:14;;;;;;;5.20;3.13;;;;;;;13.12;59.74;99494.75;4963156;28;20043;-73
2021/04/29 02:21:43;;;;;;;7.03;2.53;;;;;;;13.39;59.85;99547.00;4964562;28;20056;-73
2021/04/29 02:24:11;;;;;;;6.47;2.77;;;;;;;13.45;59.99;99560.56;4958843;28;20058;-81
2021/04/29 02:26:38;;;;;;;4.60;2.67;;;;;;;13.41;60.14;99565.16;4962843;28;20071;-81
2021/04/29 02:29:05;;;;;;;6.03;3.10;;;;;;;13.40;60.09;99569.13;4960802;28;20053;-71
2021/04/29 02:31:34;;;;;;;10.67;2.93;;;;;;;13.37;60.05;99555.75;4961799;28;20051;-72
2021/04/29 02:34:02;;;;;;;5.30;2.90;;;;;;;13.37;60.08;99558.56;4964623;28;20058;-73
2021/04/29 02:36:29;;;;;;;7.57;2.93;;;;;;;13.37;59.98;99572.56;4961274;28;20058;-72
2021/04/29 02:38:56;;;;;;;6.27;2.27;;;;;;;13.30;60.14;99574.16;4966163;28;20039;-71
2021/04/29 02:41:23;;;;;;;4.93;2.07;;;;;;;13.29;60.17;99567.75;4966606;28;20510;-71
2021/04/29 02:43:50;;;;;;;6.83;2.77;;;;;;;13.33;60.12;99573.53;4966568;28;20058;-71
2021/04/29 02:46:18;;;;;;;7.57;3.13;;;;;;;13.35;60.01;99574.88;4964675;28;20047;-69
2021/04/29 02:48:44;;;;;;;6.43;2.87;;;;;;;13.31;60.15;99571.06;4959188;28;20059;-70
2021/04/29 02:51:11;;;;;;;4.23;2.67;;;;;;;13.26;60.09;99557.16;4942503;28;20051;-70
2021/04/29 02:53:40;;;;;;;6.33;2.93;;;;;;;12.98;59.95;99522.88;4967085;28;20039;-71
2021/04/29 02:56:07;;;;;;;6.90;2.83;;;;;;;13.34;60.16;99578.81;4969337;28;20046;-71
2021/04/29 02:58:48;;;;;;;6.00;2.77;;;;;;;13.31;60.09;99573.88;4959832;28;20043;-73
2021/04/29 03:01:15;;;;;;;4.37;2.33;;;;;;;13.33;60.05;99576.34;4965638;28;20146;-70
2021/04/29 03:03:43;;;;;;;7.67;2.93;;;;;;;13.30;60.09;99579.78;4960198;28;20058;-73
2021/04/29 03:06:09;;;;;;;5.57;2.43;;;;;;;13.27;59.85;99581.28;4964128;28;20420;-74
2021/04/29 03:08:36;;;;;;;7.17;3.23;;;;;;;13.13;60.11;99563.66;4959593;28;20047;-72
2021/04/29 03:11:03;;;;;;;6.83;2.70;;;;;;;13.27;60.26;99581.28;4965589;28;20121;-75
2021/04/29 03:13:30;;;;;;;6.83;2.97;;;;;;;13.23;59.98;99580.22;4965625;28;20054;-74
2021/04/29 03:15:56;;;;;;;4.73;2.10;;;;;;;13.21;60.04;99574.09;4963421;28;20042;-70
2021/04/29 03:18:22;;;;;;;5.57;2.87;;;;;;;13.21;60.08;99580.53;4962445;28;20061;-70
2021/04/29 03:20:48;;;;;;;7.40;3.27;;;;;;;13.05;60.37;99557.69;4957199;28;20051;-71
2021/04/29 03:23:15;;;;;;;6.67;2.80;;;;;;;13.20;60.14;99580.88;4960950;28;20047;-71
2021/04/29 03:25:41;;;;;;;7.40;2.50;;;;;;;13.22;60.58;99578.56;4956068;28;20057;-69
2021/04/29 03:28:07;;;;;;;6.70;2.73;;;;;;;13.20;60.42;99578.06;4966585;28;20054;-71
2021/04/29 03:30:34;;;;;;;4.07;2.63;;;;;;;13.24;60.63;99593.94;4964338;28;20051;-70
2021/04/29 03:33:00;;;;;;;5.53;2.90;;;;;;;13.05;60.56;99557.69;4958281;28;20131;-71
2021/04/29 03:35:27;;;;;;;6.07;2.63;;;;;;;13.19;60.65;99579.19;4958089;28;20755;-71
2021/04/29 03:37:53;;;;;;;9.00;3.13;;;;;;;13.32;60.64;99592.34;4965776;28;20042;-73
2021/04/29 03:40:19;;;;;;;7.83;2.83;;;;;;;13.32;60.42;99586.72;4959896;28;20055;-75
2021/04/29 03:42:52;;;;;;;6.13;2.87;;;;;;;13.29;60.32;99584.56;4961885;28;20162;-75
2021/04/29 03:45:18;;;;;;;10.40;2.93;;;;;;;13.30;60.50;99583.44;4963047;28;20048;-71
2021/04/29 03:47:45;;;;;;;5.33;2.40;;;;;;;13.23;60.48;99569.00;4959488;28;20133;-71
2021/04/29 03:50:11;;;;;;;6.17;2.73;;;;;;;13.31;60.33;99571.06;4967331;28;20054;-73
2021/04/29 03:52:38;;;;;;;8.90;2.67;;;;;;;13.33;60.53;99573.53;4960162;28;20046;-73
2021/04/29 03:55:04;;;;;;;13.17;2.90;;;;;;;13.28;60.31;99566.09;4963438;28;20078;-77
2021/04/29 03:57:31;;;;;;;6.97;3.10;;;;;;;13.32;60.39;99578.31;4958962;28;20059;-75
2021/04/29 03:59:57;;;;;;;7.90;2.97;;;;;;;13.22;60.52;99567.34;4962228;28;20043;-80
2021/04/29 04:02:23;;;;;;;6.47;2.97;;;;;;;13.38;60.18;99587.41;4965900;28;20046;-78
2021/04/29 04:04:50;;;;;;;3.93;2.13;;;;;;;13.34;60.41;99595.66;4965784;28;20051;-75
2021/04/29 04:07:17;;;;;;;7.10;2.83;;;;;;;13.33;60.33;99593.16;4961545;28;20051;-75
2021/04/29 04:09:44;;;;;;;6.03;2.40;;;;;;;13.33;60.14;99585.56;4958508;28;20047;-75
2021/04/29 04:12:10;;;;;;;6.67;3.17;;;;;;;13.33;60.20;99579.97;4956791;28;20046;-77
2021/04/29 04:14:37;;;;;;;5.83;3.17;;;;;;;13.35;60.09;99593.66;4960646;28;20050;-75
2021/04/29 04:17:04;;;;;;;7.90;3.17;;;;;;;13.39;60.33;99595.50;4956178;28;20144;-75
2021/04/29 04:19:30;;;;;;;5.73;3.03;;;;;;;13.44;60.36;99602.97;4959216;28;20187;-75
2021/04/29 04:21:57;;;;;;;6.87;2.60;;;;;;;13.41;60.38;99587.59;4961726;28;20125;-70
2021/04/29 04:24:23;;;;;;;6.93;2.40;;;;;;;13.42;60.53;99594.03;4958079;28;20134;-70
2021/04/29 04:26:49;;;;;;;5.57;2.53;;;;;;;13.42;60.86;99596.84;4961049;28;20062;-68
2021/04/29 04:29:16;;;;;;;4.30;2.30;;;;;;;13.41;60.71;99596.00;4961821;28;20043;-81
2021/04/29 04:31:42;;;;;;;5.50;2.90;;;;;;;13.45;60.46;99602.63;4964932;28;20117;-78
2021/04/29 04:34:08;;;;;;;5.53;2.40;;;;;;;13.40;60.60;99597.19;4958410;28;20047;-79
2021/04/29 04:36:35;;;;;;;5.13;2.80;;;;;;;13.48;60.74;99607.59;4969284;28;20047;-73
2021/04/29 04:39:02;;;;;;;6.57;2.43;;;;;;;13.41;60.67;99587.59;4958900;28;20404;-71
2021/04/29 04:41:29;;;;;;;5.07;2.40;;;;;;;13.43;60.48;99599.31;4960829;28;20043;-72
2021/04/29 04:43:55;;;;;;;11.90;3.30;;;;;;;13.38;60.21;99595.84;4956228;28;20047;-72
2021/04/29 04:46:22;;;;;;;4.30;2.33;;;;;;;13.40;60.26;99587.91;4958561;28;20404;-82
2021/04/29 04:48:48;;;;;;;9.37;2.70;;;;;;;13.42;60.58;99599.63;4970169;28;20055;-74
2021/04/29 04:51:14;;;;;;;8.10;2.63;;;;;;;13.44;60.45;99600.97;4957899;28;20130;-72
2021/04/29 04:53:41;;;;;;;6.40;2.57;;;;;;;13.42;60.56;99600.47;4966428;28;20053;-73
2021/04/29 04:56:07;;;;;;;9.17;2.37;;;;;;;13.25;60.72;99584.38;4963085;28;20053;-74
2021/04/29 04:58:33;;;;;;;6.20;2.57;;;;;;;13.26;60.57;99597.28;4970326;28;20110;-73
2021/04/29 05:01:00;;;;;;;8.77;3.13;;;;;;;13.28;60.85;99588.53;4962769;28;20073;-74
2021/04/29 05:03:27;;;;;;;6.43;2.93;;;;;;;13.22;60.70;99579.38;4961892;28;20918;-77
2021/04/29 05:05:54;;;;;;;5.63;3.00;;;;;;;13.26;60.23;99585.19;4954807;28;20054;-74
2021/04/29 05:08:20;;;;;;;7.50;2.83;;;;;;;13.32;60.26;99595.13;4957626;28;20055;-75
2021/04/29 05:10:47;;;;;;;6.13;3.00;;;;;;;13.00;60.08;99541.03;4959307;28;20476;-73
2021/04/29 05:13:13;;;;;;;5.57;3.60;;;;;;;13.31;59.92;99599.09;4957752;28;20051;-76
2021/04/29 05:15:39;;;;;;;4.80;2.50;;;;;;;13.24;60.12;99587.53;4958043;28;20051;-73
2021/04/29 05:18:05;;;;;;;10.77;2.97;;;;;;;13.31;59.89;99601.09;4969011;28;20043;-79
2021/04/29 05:20:34;;;;;;;8.23;3.00;;;;;;;13.29;59.90;99601.38;4964774;28;20487;-76
2021/04/29 05:23:00;;;;;;;7.47;3.23;;;;;;;13.31;60.18;99606.69;4960717;28;20485;-67
2021/04/29 05:25:27;;;;;;;5.43;2.83;;;;;;;13.26;60.30;99614.09;4954884;28;20046;-69
2021/04/29 05:27:58;;;;;;;6.30;3.00;;;;;;;13.25;60.27;99614.41;4965657;28;20496;-70
2021/04/29 05:30:24;;;;;;;4.83;2.80;;;;;;;13.21;60.25;99610.56;4956606;28;20047;-68
2021/04/29 05:32:51;;;;;;;4.70;3.10;;;;;;;13.10;60.47;99603.56;4962993;28;20057;-74
2021/04/29 05:35:17;;;;;;;6.20;3.00;;;;;;;13.12;60.40;99602.09;4961139;28;20042;-71
2021/04/29 05:37:44;;;;;;;11.07;3.87;;;;;;;13.09;60.34;99594.31;4963492;28;20061;-80
2021/04/29 05:40:13;;;;;;;7.77;2.87;;;;;;;13.13;60.54;99600.97;4968252;28;20124;-76
2021/04/29 05:42:41;;;;;;;11.68;2.72;;;;;;;13.25;60.51;99608.78;4961360;28;20051;-68
2021/04/29 05:45:09;;;;;;;6.93;2.53;;;;;;;13.19;60.49;99607.22;4956839;28;20051;-72
2021/04/29 05:47:36;;;;;;;12.17;4.70;;;;;;;13.23;60.78;99614.69;4960283;28;20047;-66
2021/04/29 05:50:04;;;;;;;7.87;3.63;;;;;;;13.23;60.71;99611.03;4968293;28;20082;-65
2021/04/29 05:52:31;;;;;;;5.87;3.03;;;;;;;13.26;60.65;99610.44;4958520;28;20126;-66
2021/04/29 05:54:58;;;;;;;5.97;3.37;;;;;;;13.18;60.84;99609.22;4963198;28;20047;-75
2021/04/29 05:57:24;;;;;;;8.80;3.87;;;;;;;13.22;61.00;99606.59;4968741;28;20058;-64
2021/04/29 05:59:51;;;;;;;5.40;2.80;;;;;;;13.14;61.00;99604.59;4966482;28;20051;-63
2021/04/29 06:02:17;;;;;;;5.67;3.10;;;;;;;13.15;61.04;99611.84;4965671;28;20506;-64
2021/04/29 06:04:44;;;;;;;9.70;3.53;;;;;;;13.14;61.11;99616.63;4966106;28;20407;-63
2021/04/29 06:07:11;;;;;;;11.30;5.70;;;;;;;13.13;61.23;99608.50;4956836;28;20051;-63
2021/04/29 06:09:37;;;;;;;5.23;3.20;;;;;;;13.13;61.12;99617.78;4969946;28;21741;-64
2021/04/29 06:12:10;;;;;;;6.67;3.47;;;;;;;13.03;61.06;99602.03;4961453;28;20051;-63
2021/04/29 06:14:37;;;;;;;12.83;4.00;;;;;;;13.16;61.22;99619.09;4955176;28;20051;-63
2021/04/29 06:17:03;;;;;;;7.50;3.97;;;;;;;13.13;60.93;99614.13;4964697;28;20611;-63
2021/04/29 06:19:33;;;;;;;;;;;;;;;13.17;60.71;99615.16;4965261;28;20051;-63
2021/04/29 06:22:03;;;;;;;8.23;4.10;;;;;;;13.06;60.95;99614.59;4956585;28;19926;-64
2021/04/29 06:24:29;;;;;;;10.07;4.13;;;;;;;13.04;61.29;99620.50;4968617;28;20133;-64
2021/04/29 06:26:55;;;;;;;16.37;6.67;;;;;;;13.08;61.58;99622.66;4968143;28;20397;-63
2021/04/29 06:29:22;;;;;;;14.07;5.57;;;;;;;13.17;61.47;99620.75;4961144;28;20126;-65
2021/04/29 06:31:49;;;;;;;7.47;3.80;;;;;;;13.28;61.59;99622.16;4967472;28;20222;-65
2021/04/29 06:34:16;;;;;;;8.50;4.47;;;;;;;13.36;61.58;99626.16;4961991;28;20057;-64
2021/04/29 06:36:42;;;;;;;5.33;3.80;;;;;;;13.40;61.47;99625.22;4966411;28;20050;-65
2021/04/29 06:39:09;;;;;;;5.90;3.63;;;;;;;13.43;61.25;99624.53;4970255;28;20061;-65
2021/04/29 06:41:35;;;;;;;7.70;4.57;;;;;;;13.54;61.32;99635.47;4965068;28;20043;-65
2021/04/29 06:44:02;;;;;;;11.07;4.17;;;;;;;13.23;61.45;99574.59;4963486;28;20055;-65
2021/04/29 06:46:29;;;;;;;8.97;3.93;;;;;;;13.58;61.66;99625.28;4955685;28;20047;-66
2021/04/29 06:48:55;;;;;;;9.77;4.10;;;;;;;13.50;61.44;99619.31;4965122;28;20046;-63
2021/04/29 06:51:22;;;;;;;10.70;4.27;;;;;;;13.62;61.39;99626.28;4960612;28;20499;-66
2021/04/29 06:54:06;;;;;;;8.37;4.50;;;;;;;13.71;61.57;99630.81;4966136;28;20085;-66
2021/04/29 06:56:34;;;;;;;9.10;4.60;;;;;;;13.77;61.76;99641.88;4957430;28;20055;-65
2021/04/29 06:59:07;;;;;;;12.63;5.70;;;;;;;13.54;61.16;99597.06;4956729;28;20308;-64
2021/04/29 07:01:34;;;;;;;9.70;5.67;;;;;;;13.91;60.75;99634.16;4961929;28;20043;-64
2021/04/29 07:04:00;;;;;;;10.97;5.07;;;;;;;14.06;60.75;99658.16;4962867;28;20059;-66
2021/04/29 07:06:27;;;;;;;16.87;5.47;;;;;;;14.12;60.84;99657.69;4964119;28;20047;-65
2021/04/29 07:09:00;;;;;;;10.35;4.72;;;;;;;14.15;60.59;99651.41;4968117;28;20042;-65
2021/04/29 07:11:28;;;;;;;9.45;4.40;;;;;;;14.13;60.64;99636.88;4962666;28;20503;-65
2021/04/29 07:13:55;;;;;;;12.67;5.27;;;;;;;14.30;60.21;99652.94;4965064;28;20377;-65
2021/04/29 07:16:21;;;;;;;22.50;7.37;;;;;;;14.36;59.80;99646.00;4958873;28;20478;-65
2021/04/29 07:18:48;;;;;;;14.07;6.63;;;;;;;14.53;59.43;99655.63;4960718;28;20043;-66
2021/04/29 07:21:14;;;;;;;13.80;5.30;;;;;;;14.58;59.09;99655.47;4961829;28;20064;-65
2021/04/29 07:23:41;;;;;;;13.97;5.70;;;;;;;14.56;58.85;99638.09;4963992;28;20059;-64
2021/04/29 07:26:13;;;;;;;11.60;4.40;;;;;;;14.91;58.67;99662.25;4962808;28;20048;-64
2021/04/29 07:28:39;;;;;;;10.20;4.23;;;;;;;15.09;58.03;99667.88;4956765;28;20047;-64
2021/04/29 07:31:06;;;;;;;12.60;4.40;;;;;;;15.15;57.65;99664.56;4954112;28;20043;-64
2021/04/29 07:33:42;;;;;;;9.17;3.40;;;;;;;15.10;57.49;99652.66;4953990;28;20062;-65
2021/04/29 07:36:09;;;;;;;10.03;4.73;;;;;;;15.10;57.34;99658.28;4954514;28;20049;-64
2021/04/29 07:38:36;;;;;;;9.30;4.97;;;;;;;15.14;56.91;99657.28;4953011;28;20053;-64
2021/04/29 07:41:03;;;;;;;10.80;4.17;;;;;;;15.22;56.81;99666.03;4954490;28;20389;-64
2021/04/29 07:43:29;;;;;;;11.80;4.77;;;;;;;15.15;56.36;99647.69;4954949;28;20058;-65
2021/04/29 07:45:55;;;;;;;7.33;4.13;;;;;;;15.30;56.21;99668.81;4954233;28;20484;-65
2021/04/29 07:48:22;;;;;;;10.67;5.37;;;;;;;15.18;56.19;99643.38;4953545;28;20044;-64
2021/04/29 07:50:48;;;;;;;10.23;3.70;;;;;;;15.29;55.95;99667.19;4960518;28;20046;-66
2021/04/29 07:53:14;;;;;;;8.73;2.90;;;;;;;15.37;55.54;99669.13;4954042;28;20407;-65
2021/04/29 07:55:41;;;;;;;5.17;3.13;;;;;;;15.34;55.42;99649.28;4953539;28;20055;-66
2021/04/29 07:58:07;;;;;;;7.17;3.47;;;;;;;15.37;55.21;99652.25;4954162;28;20043;-65
2021/04/29 08:00:51;;;;;;;6.53;3.73;;;;;;;15.65;55.29;99668.72;4960868;28;20059;-64
2021/04/29 08:03:17;;;;;;;9.60;4.40;;;;;;;16.01;54.66;99650.59;4965679;28;20046;-64
2021/04/29 08:05:44;;;;;;;8.43;5.27;;;;;;;16.71;53.91;99679.97;4963259;28;20401;-63
2021/04/29 08:08:11;;;;;;;8.53;4.37;;;;;;;17.02;53.64;99675.94;4966289;28;20066;-64
2021/04/29 08:10:44;;;;;;;15.65;4.63;;;;;;;17.07;53.05;99672.91;4960728;28;20055;-64
2021/04/29 08:13:11;;;;;;;8.00;3.85;;;;;;;16.98;52.62;99680.63;4963471;28;20125;-64
2021/04/29 08:15:39;;;;;;;11.55;4.07;;;;;;;16.77;52.90;99677.81;4955858;28;20062;-66
2021/04/29 08:18:05;;;;;;;8.90;3.92;;;;;;;16.56;52.96;99663.66;4953684;28;20135;-64
2021/04/29 08:20:32;;;;;;;13.30;4.88;;;;;;;16.67;53.05;99683.81;4953173;28;20423;-64
2021/04/29 08:22:58;;;;;;;11.85;4.60;;;;;;;16.75;52.94;99686.63;4953346;28;20049;-66
2021/04/29 08:25:24;;;;;;;9.35;4.38;;;;;;;16.96;52.78;99680.16;4953597;28;20436;-65
2021/04/29 08:27:51;;;;;;;9.25;4.53;;;;;;;17.08;52.47;99677.38;4953558;28;20058;-65
2021/04/29 08:30:23;;;;;;;11.57;5.88;;;;;;;17.03;52.40;99683.25;4953794;28;20122;-65
2021/04/29 08:32:49;;;;;;;10.10;4.88;;;;;;;17.10;52.50;99694.78;4953777;28;20043;-64
2021/04/29 08:35:16;;;;;;;8.48;4.38;;;;;;;17.29;51.79;99695.09;4956770;28;20051;-64
2021/04/29 08:37:42;;;;;;;7.63;4.28;;;;;;;17.33;51.77;99697.22;4953507;28;20075;-65
2021/04/29 08:40:12;;;;;;;9.55;4.40;;;;;;;17.61;51.40;99697.47;4953389;28;20047;-65
2021/04/29 08:42:38;;;;;;;8.45;4.70;;;;;;;17.74;51.01;99674.56;4958866;28;20541;-66
2021/04/29 08:45:05;;;;;;;9.63;4.20;;;;;;;18.14;50.62;99692.84;4953154;28;20055;-66
2021/04/29 08:47:35;;;;;;;8.52;3.58;;;;;;;18.26;50.10;99694.88;4959574;28;20528;-65
2021/04/29 08:50:13;;;;;;;8.40;3.45;;;;;;;18.78;49.50;99696.97;4955674;28;20054;-65
2021/04/29 08:52:40;;;;;;;7.18;2.55;;;;;;;19.17;48.75;99687.63;4953800;28;20613;-65
2021/04/29 08:55:07;;;;;;;3.00;1.95;;;;;;;19.44;48.19;99693.66;4953261;28;20051;-65
2021/04/29 08:57:33;;;;;;;7.15;3.53;;;;;;;19.69;47.85;99705.72;4953168;28;20051;-65
2021/04/29 09:00:01;;;;;;;6.93;3.15;;;;;;;19.81;47.09;99696.34;4953379;28;20043;-65
2021/04/29 09:02:34;;;;;;;6.72;3.00;;;;;;;19.71;46.74;99696.88;4953113;28;20089;-65
2021/04/29 09:05:19;;;;;;;3.33;2.42;;;;;;;19.33;47.54;99692.56;4953090;28;20109;-65
2021/04/29 09:07:56;;;;;;;5.05;1.50;;;;;;;19.14;47.57;99696.88;4958265;28;20043;-65
2021/04/29 09:10:23;;;;;;;5.93;2.05;;;;;;;19.09;46.75;99694.28;4960097;28;20053;-64
2021/04/29 09:12:49;;;;;;;6.10;2.20;;;;;;;19.41;46.63;99719.88;4956867;28;20057;-64
2021/04/29 09:15:26;;;;;;;5.70;2.13;;;;;;;19.71;46.02;99725.19;4955128;28;20047;-66
2021/04/29 09:18:16;;;;;;;3.07;1.93;;;;;;;19.75;46.15;99731.78;4956976;28;20050;-65
2021/04/29 09:20:55;;;;;;;3.42;1.73;;;;;;;19.85;45.66;99734.09;4957034;28;20058;-63
2021/04/29 09:23:27;;;;;;;4.85;2.25;;;;;;;19.75;45.44;99728.94;4956604;28;20138;-65
2021/04/29 09:26:05;;;;;;;4.95;2.03;;;;;;;19.66;45.10;99729.13;4960298;28;20457;-66
2021/04/29 09:28:37;;;;;;;6.13;2.17;;;;;;;19.90;45.35;99725.34;4956324;28;20050;-65
2021/04/29 09:31:06;;;;;;;3.83;1.90;;;;;;;20.20;44.61;99730.56;4956492;28;20040;-64
2021/04/29 09:33:37;;;;;;;4.43;2.63;;;;;;;20.41;44.07;99730.25;4956623;28;20058;-65
2021/04/29 09:36:04;;;;;;;6.50;3.35;;;;;;;20.68;43.70;99722.84;4956624;28;20142;-64
2021/04/29 09:38:39;;;;;;;9.10;3.53;;;;;;;21.05;43.38;99726.97;4956571;28;20047;-65
2021/04/29 09:41:09;;;;;;;4.78;2.28;;;;;;;21.35;42.76;99722.78;4959797;28;20049;-65
2021/04/29 09:43:36;;;;;;;11.63;2.78;;;;;;;21.70;42.54;99734.03;4957471;28;20141;-64
2021/04/29 09:46:04;;;;;;;6.43;2.75;;;;;;;22.00;41.94;99735.03;4956085;28;20043;-65
2021/04/29 09:48:39;;;;;;;7.30;2.70;;;;;;;21.86;41.94;99720.56;4956519;28;20051;-64
2021/04/29 09:51:06;;;;;;;4.15;2.05;;;;;;;21.55;42.33;99712.22;4956404;28;20479;-65
2021/04/29 09:53:47;;;;;;;5.22;2.17;;;;;;;21.22;42.75;99733.41;4956301;28;20051;-64
2021/04/29 09:56:19;;;;;;;4.93;1.98;;;;;;;21.08;42.39;99735.94;4956622;28;20174;-66
2021/04/29 09:58:48;;;;;;;4.05;1.60;;;;;;;21.34;42.18;99741.00;4960924;28;20054;-65
2021/04/29 10:01:16;;;;;;;4.03;1.80;;;;;;;21.66;41.82;99733.97;4956060;28;20047;-66
2021/04/29 10:03:44;;;;;;;9.65;1.88;;;;;;;21.91;41.10;99737.28;4956047;28;20047;-64
2021/04/29 10:06:14;;;;;;;4.03;1.40;;;;;;;22.15;40.71;99726.78;4955876;28;20058;-66
2021/04/29 10:08:41;;;;;;;2.90;1.33;;;;;;;22.20;40.02;99726.47;4966021;28;20047;-64
2021/04/29 10:11:09;;;;;;;2.83;1.30;;;;;;;21.80;39.97;99743.97;4958172;28;20043;-64
2021/04/29 10:13:42;;;;;;;2.92;1.90;;;;;;;21.44;39.95;99749.75;4955530;28;20521;-66
2021/04/29 10:16:09;;;;;;;4.13;1.30;;;;;;;21.71;39.80;99755.59;4959941;28;20047;-64
2021/04/29 10:18:35;;;;;;;2.55;1.10;;;;;;;21.79;39.68;99751.69;4955464;28;20051;-65
2021/04/29 10:21:03;;;;;;;1.85;0.90;;;;;;;21.84;39.40;99742.00;4955109;28;20503;-65
2021/04/29 10:23:30;;;;;;;2.30;1.10;;;;;;;22.13;39.37;99758.44;4955543;28;20453;-65
2021/04/29 10:25:59;;;;;;;6.13;1.92;;;;;;;22.08;39.07;99743.69;4955846;28;20552;-65
2021/04/29 10:28:35;;;;;;;5.27;2.37;;;;;;;22.50;39.29;99759.91;4955331;28;20410;-63
2021/04/29 10:31:23;;;;;;;5.95;1.30;;;;;;;23.13;38.65;99754.41;4955693;28;20106;-64
2021/04/29 10:33:56;;;;;;;2.55;1.55;;;;;;;23.68;37.91;99753.13;4962131;28;20548;-63
2021/04/29 10:36:37;;;;;;;4.03;1.10;;;;;;;24.08;38.00;99749.50;4955157;28;20079;-64
2021/04/29 10:39:18;;;;;;;2.38;1.10;;;;;;;23.93;37.59;99773.38;4956157;28;20043;-64
2021/04/29 10:41:50;;;;;;;4.70;1.52;;;;;;;23.70;36.96;99762.94;4954816;28;20058;-65
2021/04/29 10:44:18;;;;;;;4.25;0.90;;;;;;;23.93;36.53;99765.66;4955345;28;20051;-65
2021/04/29 10:46:49;;;;;;;3.40;1.25;;;;;;;24.09;36.10;99760.50;4959034;28;20050;-65
2021/04/29 10:49:17;;;;;;;1.80;1.20;;;;;;;24.63;36.05;99772.47;4961287;28;20081;-65
2021/04/29 10:51:46;;;;;;;3.38;1.38;;;;;;;25.13;35.46;99777.75;4956553;28;20141;-63
2021/04/29 10:54:14;;;;;;;4.15;1.15;;;;;;;25.38;35.59;99780.78;4955193;28;20471;-64
2021/04/29 10:56:42;;;;;;;2.13;1.13;;;;;;;25.72;34.75;99773.59;4955114;28;20043;-65
2021/04/29 10:59:13;;;;;;;7.40;1.20;;;;;;;26.23;34.29;99761.09;4955460;28;20047;-65
2021/04/29 11:01:45;;;;;;;2.97;1.08;;;;;;;26.51;33.77;99782.44;4955351;28;20046;-65
2021/04/29 11:04:18;;;;;;;7.57;1.60;;;;;;;26.60;33.12;99785.72;4954888;28;20051;-65
2021/04/29 11:06:45;;;;;;;3.70;1.30;;;;;;;26.53;32.34;99787.72;4962432;28;20047;-65
2021/04/29 11:09:17;;;;;;;2.28;1.10;;;;;;;26.58;32.85;99787.34;4962333;28;20047;-64
2021/04/29 11:11:44;;;;;;;2.88;0.98;;;;;;;26.64;31.98;99789.41;4954314;28;20051;-64
2021/04/29 11:14:15;;;;;;;4.85;1.02;;;;;;;26.47;31.54;99787.34;4954463;28;20069;-65
2021/04/29 11:17:03;;;;;;;6.47;1.60;;;;;;;26.09;32.13;99752.50;4954842;28;20058;-63
2021/04/29 11:19:53;;;;;;;4.10;1.20;;;;;;;26.30;32.35;99793.81;4954621;28;20488;-64
2021/04/29 11:22:27;;;;;;;3.25;1.13;;;;;;;26.37;32.31;99783.19;4954781;28;20075;-65
2021/04/29 11:24:54;;;;;;;3.38;1.23;;;;;;;26.55;31.71;99788.97;4958920;28;20473;-66
2021/04/29 11:27:33;;;;;;;3.83;1.77;;;;;;;26.46;32.16;99786.50;4954312;28;20106;-66
2021/04/29 11:30:05;;;;;;;4.93;1.67;;;;;;;26.59;31.85;99786.91;4954727;28;20482;-64
2021/04/29 11:32:34;;;;;;;3.92;3.63;;;;;;;26.53;31.78;99782.84;4953964;28;20465;-65
2021/04/29 11:35:06;;;;;;;2.70;1.05;;;;;;;26.64;31.89;99780.81;4954509;28;20044;-65
2021/04/29 11:37:40;;;;;;;3.72;1.38;;;;;;;26.64;32.04;99780.81;4959369;28;20552;-65